createdAt,value
2022-10-19T00:00:02.826Z,15.20
2022-10-19T00:03:52.141Z,15.20
2022-10-19T00:07:50.408Z,15.20
2022-10-19T00:11:43.194Z,15.20
2022-10-19T00:15:34.236Z,15.20
2022-10-19T00:20:05.287Z,15.20
2022-10-19T00:27:34.669Z,15.20
2022-10-19T00:31:21.270Z,15.20
2022-10-19T00:35:36.759Z,15.20
2022-10-19T00:39:45.574Z,15.10
2022-10-19T00:43:54.740Z,15.10
2022-10-19T00:56:47.077Z,15.00
2022-10-19T01:00:49.414Z,15.00
2022-10-19T01:17:04.427Z,15.10
2022-10-19T01:21:33.619Z,15.10
2022-10-19T01:25:59.063Z,15.10
2022-10-19T01:34:08.791Z,15.10
2022-10-19T01:56:08.375Z,15.00
2022-10-19T01:59:51.210Z,15.00
2022-10-19T02:03:39.875Z,15.00
2022-10-19T02:07:30.767Z,15.00
2022-10-19T02:11:36.638Z,15.00
2022-10-19T02:23:40.652Z,15.00
2022-10-19T02:27:23.673Z,14.90
2022-10-19T02:35:34.519Z,14.70
2022-10-19T02:39:30.329Z,14.50
2022-10-19T02:43:30.662Z,14.50
2022-10-19T02:48:12.856Z,14.40
2022-10-19T02:52:24.867Z,14.30
2022-10-19T03:12:10.603Z,14.20
2022-10-19T03:16:00.830Z,14.20
2022-10-19T03:19:58.869Z,14.20
2022-10-19T03:23:51.906Z,14.30
2022-10-19T03:27:44.896Z,14.30
2022-10-19T03:31:42.905Z,14.30
2022-10-19T03:35:25.485Z,14.30
2022-10-19T03:39:21.264Z,14.30
2022-10-19T04:02:41.883Z,14.30
2022-10-19T04:07:00.850Z,14.30
2022-10-19T04:11:02.147Z,14.20
2022-10-19T04:14:56.911Z,14.20
2022-10-19T04:18:56.303Z,14.30
2022-10-19T04:22:43.718Z,14.30
2022-10-19T04:26:30.102Z,14.20
2022-10-19T04:30:20.836Z,14.20
2022-10-19T04:35:00.633Z,14.20
2022-10-19T04:38:50.338Z,14.30
2022-10-19T04:42:50.030Z,14.30
2022-10-19T04:50:36.028Z,14.40
2022-10-19T04:54:27.464Z,14.40
2022-10-19T04:58:25.994Z,14.50
2022-10-19T05:02:22.178Z,14.50
2022-10-19T05:10:15.211Z,14.40
2022-10-19T05:14:35.835Z,14.30
2022-10-19T05:18:31.672Z,14.30
2022-10-19T05:22:25.333Z,14.30
2022-10-19T05:26:19.947Z,14.30
2022-10-19T05:30:48.986Z,14.30
2022-10-19T05:34:35.539Z,14.30
2022-10-19T05:42:20.144Z,14.20
2022-10-19T05:54:58.593Z,14.30
2022-10-19T05:58:56.879Z,14.30
2022-10-19T06:06:52.309Z,14.30
2022-10-19T06:10:46.851Z,14.30
2022-10-19T06:14:39.515Z,14.30
2022-10-19T06:18:32.703Z,14.30
2022-10-19T06:22:19.017Z,14.30
2022-10-19T06:26:25.971Z,14.30
2022-10-19T06:30:09.180Z,14.30
2022-10-19T06:34:17.825Z,14.30
2022-10-19T06:38:11.500Z,14.30
2022-10-19T06:42:02.039Z,14.30
2022-10-19T06:50:25.309Z,14.30
2022-10-19T06:54:26.128Z,14.40
2022-10-19T06:58:09.286Z,14.40
2022-10-19T07:01:59.449Z,14.40
2022-10-19T07:05:47.064Z,14.40
2022-10-19T07:09:41.773Z,14.50
2022-10-19T07:13:28.987Z,14.40
2022-10-19T07:17:14.870Z,14.50
2022-10-19T07:21:25.490Z,14.50
2022-10-19T07:25:08.095Z,14.50
2022-10-19T07:28:51.198Z,14.50
2022-10-19T07:32:33.036Z,14.50
2022-10-19T07:36:14.995Z,14.60
2022-10-19T07:39:56.918Z,14.60
2022-10-19T07:43:43.808Z,14.60
2022-10-19T07:47:25.649Z,14.60
2022-10-19T07:51:09.458Z,14.70
2022-10-19T07:54:52.722Z,14.80
2022-10-19T07:58:36.485Z,14.80
2022-10-19T08:02:20.230Z,14.80
2022-10-19T08:06:10.385Z,14.80
2022-10-19T08:09:53.835Z,14.90
2022-10-19T08:13:36.470Z,14.90
2022-10-19T08:17:18.481Z,14.90
2022-10-19T08:21:03.285Z,15.00
2022-10-19T08:24:45.469Z,15.00
2022-10-19T08:28:29.102Z,15.10
2022-10-19T08:32:11.545Z,15.10
2022-10-19T08:35:56.781Z,15.20
2022-10-19T08:39:39.411Z,15.40
2022-10-19T08:43:34.554Z,15.50
2022-10-19T08:47:44.906Z,15.50
2022-10-19T08:51:28.492Z,15.50
2022-10-19T08:55:23.363Z,15.60
2022-10-19T08:59:30.486Z,15.80
2022-10-19T09:03:43.872Z,16.00
2022-10-19T09:07:45.600Z,16.30
2022-10-19T09:11:37.294Z,16.40
2022-10-19T09:15:34.851Z,16.80
2022-10-19T09:19:26.385Z,17.50
2022-10-19T09:23:31.581Z,18.30
2022-10-19T09:27:24.493Z,18.80
2022-10-19T09:31:11.284Z,19.10
2022-10-19T09:35:05.218Z,19.30
2022-10-19T09:38:53.155Z,19.50
2022-10-19T09:42:37.187Z,19.30
2022-10-19T09:46:58.098Z,19.00
2022-10-19T09:50:45.818Z,18.90
2022-10-19T09:54:40.389Z,19.00
2022-10-19T09:58:33.047Z,19.30
2022-10-19T10:02:20.004Z,20.00
2022-10-19T10:06:13.631Z,20.40
2022-10-19T10:09:55.598Z,20.60
2022-10-19T10:13:50.818Z,20.60
2022-10-19T10:17:34.050Z,20.50
2022-10-19T10:21:32.356Z,20.20
2022-10-19T10:25:18.838Z,20.00
2022-10-19T10:29:01.681Z,19.50
2022-10-19T10:32:51.674Z,19.30
2022-10-19T10:36:35.846Z,19.50
2022-10-19T10:40:23.398Z,20.10
2022-10-19T10:44:20.896Z,20.60
2022-10-19T10:48:18.409Z,20.70
2022-10-19T10:52:22.099Z,20.90
2022-10-19T10:56:23.772Z,21.20
2022-10-19T11:00:25.850Z,21.40
2022-10-19T11:04:20.955Z,21.60
2022-10-19T11:08:35.861Z,21.60
2022-10-19T11:12:31.561Z,21.70
2022-10-19T11:16:24.029Z,22.00
2022-10-19T11:20:11.729Z,22.00
2022-10-19T11:24:09.735Z,21.90
2022-10-19T11:28:20.773Z,22.00
2022-10-19T11:32:23.683Z,22.30
2022-10-19T11:36:29.103Z,22.70
2022-10-19T11:40:29.503Z,23.20
2022-10-19T11:44:52.218Z,23.60
2022-10-19T11:49:00.718Z,24.10
2022-10-19T11:52:48.373Z,24.60
2022-10-19T11:57:04.029Z,24.80
2022-10-19T12:01:28.879Z,25.20
2022-10-19T12:05:50.511Z,25.50
2022-10-19T12:10:13.619Z,25.60
2022-10-19T12:14:01.285Z,24.90
2022-10-19T12:17:48.622Z,24.30
2022-10-19T12:21:37.873Z,23.90
2022-10-19T12:25:21.047Z,23.80
2022-10-19T12:29:13.266Z,23.90
2022-10-19T12:33:26.966Z,24.40
2022-10-19T12:37:40.533Z,24.90
2022-10-19T12:41:53.593Z,25.40
2022-10-19T12:45:54.406Z,25.80
2022-10-19T12:49:51.297Z,26.10
2022-10-19T12:53:37.242Z,25.60
2022-10-19T12:57:29.071Z,25.10
2022-10-19T13:01:35.268Z,24.30
2022-10-19T13:05:23.279Z,24.00
2022-10-19T13:09:16.315Z,24.50
2022-10-19T13:12:58.736Z,25.10
2022-10-19T13:16:56.479Z,25.50
2022-10-19T13:20:38.317Z,25.50
2022-10-19T13:24:26.575Z,25.90
2022-10-19T13:28:13.157Z,25.60
2022-10-19T13:32:36.186Z,25.70
2022-10-19T13:36:19.830Z,26.30
2022-10-19T13:40:26.730Z,26.60
2022-10-19T13:44:15.455Z,26.50
2022-10-19T13:48:10.804Z,26.60
2022-10-19T13:52:20.507Z,26.80
2022-10-19T13:56:21.161Z,26.60
2022-10-19T14:00:18.243Z,26.90
2022-10-19T14:04:25.318Z,26.90
2022-10-19T14:08:19.430Z,26.90
2022-10-19T14:12:25.110Z,27.00
2022-10-19T14:16:17.199Z,27.10
2022-10-19T14:20:01.006Z,27.10
2022-10-19T14:23:43.179Z,26.30
2022-10-19T14:27:25.258Z,25.30
2022-10-19T14:31:17.705Z,24.40
2022-10-19T14:35:16.272Z,23.70
2022-10-19T14:38:59.652Z,23.10
2022-10-19T14:42:46.320Z,22.70
2022-10-19T14:46:34.092Z,22.40
2022-10-19T14:50:16.303Z,22.10
2022-10-19T14:54:47.850Z,21.80
2022-10-19T14:58:37.755Z,21.60
2022-10-19T15:02:37.447Z,21.50
2022-10-19T15:06:24.224Z,21.40
2022-10-19T15:10:31.238Z,21.30
2022-10-19T15:14:27.052Z,21.20
2022-10-19T15:18:43.426Z,21.10
2022-10-19T15:22:32.297Z,21.10
2022-10-19T15:26:28.779Z,21.10
2022-10-19T15:30:22.456Z,21.10
2022-10-19T15:34:05.462Z,21.00
2022-10-19T15:37:49.475Z,20.90
2022-10-19T15:41:37.021Z,20.90
2022-10-19T15:45:37.452Z,20.80
2022-10-19T15:49:19.320Z,20.70
2022-10-19T15:53:01.446Z,20.60
2022-10-19T15:56:46.058Z,20.50
2022-10-19T16:00:29.446Z,20.50
2022-10-19T16:04:11.933Z,20.40
2022-10-19T16:07:54.555Z,20.30
2022-10-19T16:11:36.687Z,20.20
2022-10-19T16:15:24.326Z,20.10
2022-10-19T16:19:06.193Z,20.00
2022-10-19T16:22:49.043Z,20.00
2022-10-19T16:26:32.692Z,19.90
2022-10-19T16:30:14.732Z,19.80
2022-10-19T16:33:57.361Z,19.70
2022-10-19T16:37:39.369Z,19.60
2022-10-19T16:41:21.296Z,19.50
2022-10-19T16:45:03.601Z,19.30
2022-10-19T16:48:48.072Z,19.30
2022-10-19T16:52:32.262Z,19.20
2022-10-19T16:56:14.323Z,19.10
2022-10-19T16:59:56.248Z,19.00
2022-10-19T17:03:38.348Z,18.90
2022-10-19T17:07:20.251Z,18.90
2022-10-19T17:11:17.871Z,18.90
2022-10-19T17:15:29.948Z,18.80
2022-10-19T17:19:03.392Z,18.80
2022-10-19T17:22:45.239Z,18.70
2022-10-19T17:26:38.944Z,18.60
2022-10-19T17:30:20.798Z,18.50
2022-10-19T17:34:03.442Z,18.40
2022-10-19T17:37:45.248Z,18.20
2022-10-19T17:41:28.419Z,18.20
2022-10-19T17:45:11.177Z,18.20
2022-10-19T17:48:53.504Z,18.10
2022-10-19T17:52:35.404Z,18.10
2022-10-19T17:56:19.378Z,18.10
2022-10-19T18:00:01.442Z,18.10
2022-10-19T18:03:43.509Z,18.00
2022-10-19T18:07:26.251Z,17.80
2022-10-19T18:11:17.001Z,17.60
2022-10-19T18:14:59.135Z,17.50
2022-10-19T18:18:44.109Z,17.30
2022-10-19T18:22:26.012Z,17.10
2022-10-19T18:26:11.540Z,17.10
2022-10-19T18:29:53.510Z,17.00
2022-10-19T18:33:35.760Z,16.90
2022-10-19T18:37:17.704Z,16.80
2022-10-19T18:44:54.382Z,16.70
2022-10-19T18:48:38.116Z,16.70
2022-10-19T18:52:19.965Z,16.60
2022-10-19T18:56:07.882Z,16.70
2022-10-19T18:59:49.952Z,16.60
2022-10-19T19:03:32.196Z,16.60
2022-10-19T19:07:14.060Z,16.60
2022-10-19T19:10:56.796Z,16.70
2022-10-19T19:14:39.088Z,16.70
2022-10-19T19:18:21.078Z,16.70
2022-10-19T19:22:07.878Z,16.70
2022-10-19T19:25:50.841Z,16.80
2022-10-19T19:29:32.908Z,16.80
2022-10-19T19:33:14.982Z,16.90
2022-10-19T19:36:56.845Z,16.90
2022-10-19T19:40:43.860Z,16.90
2022-10-19T19:44:29.600Z,17.00
2022-10-19T19:48:11.577Z,17.00
2022-10-19T19:51:54.407Z,17.00
2022-10-19T19:55:38.963Z,17.00
2022-10-19T19:59:21.366Z,17.00
2022-10-19T20:03:03.636Z,17.00
2022-10-19T20:06:45.531Z,17.00
2022-10-19T20:10:27.564Z,17.00
2022-10-19T20:14:09.716Z,17.10
2022-10-19T20:17:51.654Z,17.10
2022-10-19T20:21:33.955Z,17.10
2022-10-19T20:25:16.002Z,17.10
2022-10-19T20:28:58.810Z,17.10
2022-10-19T20:32:40.799Z,17.10
2022-10-19T20:36:25.149Z,17.10
2022-10-19T20:40:08.929Z,17.10
2022-10-19T20:43:52.174Z,17.10
2022-10-19T20:47:34.098Z,17.10
2022-10-19T20:51:15.987Z,17.10
2022-10-19T20:54:57.972Z,17.10
2022-10-19T20:58:42.576Z,17.10
2022-10-19T21:02:24.654Z,17.10
2022-10-19T21:06:08.841Z,17.10
2022-10-19T21:09:50.733Z,17.10
2022-10-19T21:13:32.595Z,17.10
2022-10-19T21:17:14.459Z,17.10
2022-10-19T21:20:56.308Z,17.10
2022-10-19T21:24:39.834Z,17.10
2022-10-19T21:28:21.813Z,17.20
2022-10-19T21:32:04.194Z,17.20
2022-10-19T21:35:46.153Z,17.20
2022-10-19T21:39:28.304Z,17.30
2022-10-19T21:43:11.457Z,17.30
2022-10-19T21:46:53.490Z,17.30
2022-10-19T21:50:35.373Z,17.30
2022-10-19T21:54:20.396Z,17.30
2022-10-19T21:58:03.666Z,17.30
2022-10-19T22:01:45.716Z,17.40
2022-10-19T22:05:27.690Z,17.40
2022-10-19T22:09:13.180Z,17.40
2022-10-19T22:12:56.347Z,17.50
2022-10-19T22:16:39.445Z,17.50
2022-10-19T22:20:21.439Z,17.50
2022-10-19T22:24:06.783Z,17.50
2022-10-19T22:27:48.923Z,17.60
2022-10-19T22:31:32.104Z,17.60
2022-10-19T22:35:14.278Z,17.60
2022-10-19T22:38:56.450Z,17.60
2022-10-19T22:42:38.782Z,17.60
2022-10-19T22:46:20.949Z,17.50
2022-10-19T22:50:02.901Z,17.50
2022-10-19T22:53:44.793Z,17.50
2022-10-19T22:57:26.635Z,17.40
2022-10-19T23:01:12.126Z,17.40
2022-10-19T23:04:54.041Z,17.50
2022-10-19T23:08:36.088Z,17.50
2022-10-19T23:12:18.114Z,17.50
2022-10-19T23:16:00.065Z,17.50
2022-10-19T23:19:42.015Z,17.50
2022-10-19T23:23:24.867Z,17.60
2022-10-19T23:27:06.899Z,17.60
2022-10-19T23:30:50.334Z,17.60
2022-10-19T23:34:32.495Z,17.70
2022-10-19T23:38:14.732Z,17.70
2022-10-19T23:41:56.574Z,17.70
2022-10-19T23:45:39.553Z,17.70
2022-10-19T23:49:21.438Z,17.60
2022-10-19T23:53:03.344Z,17.60
2022-10-19T23:56:45.217Z,17.60
